Time;durP1;ratioP1;P1;durP2;ratioP2;P2;SDS_P1;SDS_P2;PMS_P1;PMS_P2;Temp;Humidity;BMP_temperature;BMP_pressure;BME280_temperature;BME280_humidity;BME280_pressure;Samples;Min_cycle;Max_cycle;Signal;HPM_P1;HPM_P2
2021/08/18 00:01:18;;;;;;;5.68;3.67;;;14.40;99.90;;;;;;5080828;28;20029;-74
2021/08/18 00:03:44;;;;;;;5.82;3.53;;;14.40;99.90;;;;;;5084494;28;20055;-73
2021/08/18 00:06:11;;;;;;;8.95;4.30;;;14.40;99.90;;;;;;5084646;28;20088;-74
2021/08/18 00:08:37;;;;;;;13.18;4.75;;;14.40;99.90;;;;;;5100071;28;20033;-74
2021/08/18 00:11:03;;;;;;;9.00;4.07;;;14.40;99.90;;;;;;5084412;28;20040;-74
2021/08/18 00:13:29;;;;;;;13.65;4.20;;;14.30;99.90;;;;;;5073586;28;20036;-75
2021/08/18 00:15:56;;;;;;;7.80;3.65;;;14.30;99.90;;;;;;5063950;28;20075;-75
2021/08/18 00:18:22;;;;;;;6.65;4.03;;;14.40;99.90;;;;;;5066659;28;20044;-72
2021/08/18 00:20:48;;;;;;;10.98;4.55;;;14.30;99.90;;;;;;5068319;28;20559;-72
2021/08/18 00:23:14;;;;;;;8.65;3.97;;;14.30;99.90;;;;;;5068357;28;20037;-75
2021/08/18 00:25:40;;;;;;;9.10;4.13;;;14.20;99.90;;;;;;5068280;28;20397;-75
2021/08/18 00:28:06;;;;;;;8.50;4.05;;;14.30;99.90;;;;;;5068250;28;20125;-76
2021/08/18 00:30:32;;;;;;;7.75;3.92;;;14.20;99.90;;;;;;5068030;28;20033;-73
2021/08/18 00:32:57;;;;;;;10.90;4.05;;;14.20;99.90;;;;;;5068048;28;20043;-74
2021/08/18 00:35:23;;;;;;;5.75;3.63;;;14.20;99.90;;;;;;5084702;28;20031;-74
2021/08/18 00:37:49;;;;;;;8.35;4.13;;;14.20;99.90;;;;;;5087964;28;20037;-73
2021/08/18 00:40:15;;;;;;;6.93;3.67;;;14.20;99.90;;;;;;5103629;28;20061;-73
2021/08/18 00:42:45;;;;;;;10.68;4.60;;;14.10;99.90;;;;;;5087886;28;20031;-76
2021/08/18 00:45:13;;;;;;;21.88;4.32;;;14.20;99.90;;;;;;5088034;28;20024;-75
2021/08/18 00:47:50;;;;;;;9.30;4.88;;;14.10;99.90;;;;;;5103615;28;20103;-74
2021/08/18 00:50:20;;;;;;;6.13;3.72;;;14.10;99.90;;;;;;5103433;28;20092;-74
2021/08/18 00:52:47;;;;;;;10.07;3.97;;;14.10;99.90;;;;;;5087861;28;20048;-73
2021/08/18 00:55:16;;;;;;;8.70;4.32;;;14.10;99.90;;;;;;5087897;28;20032;-73
2021/08/18 00:57:42;;;;;;;8.35;4.35;;;14.00;99.90;;;;;;5103365;28;20075;-74
2021/08/18 01:00:12;;;;;;;8.68;4.32;;;14.00;99.90;;;;;;5087634;28;20033;-73
2021/08/18 01:02:38;;;;;;;8.48;4.55;;;14.00;99.90;;;;;;5087371;28;20489;-72
2021/08/18 01:05:32;;;;;;;8.55;3.75;;;14.00;99.90;;;;;;5103072;28;20032;-73
2021/08/18 01:07:59;;;;;;;8.65;4.55;;;14.00;99.90;;;;;;5085586;28;20055;-72
2021/08/18 01:10:28;;;;;;;8.57;4.65;;;14.00;99.90;;;;;;5086003;28;20031;-72
2021/08/18 01:13:04;;;;;;;8.68;4.20;;;13.90;99.90;;;;;;5085512;28;20032;-73
2021/08/18 01:15:31;;;;;;;8.18;4.30;;;13.90;99.90;;;;;;5087010;28;20128;-72
2021/08/18 01:18:05;;;;;;;7.68;4.55;;;13.90;99.90;;;;;;5086615;28;20047;-72
2021/08/18 01:20:45;;;;;;;10.93;4.68;;;13.90;99.90;;;;;;5085121;28;20044;-71
2021/08/18 01:23:13;;;;;;;9.98;5.00;;;13.90;99.90;;;;;;5087255;28;20055;-72
2021/08/18 01:25:41;;;;;;;10.25;5.00;;;13.90;99.90;;;;;;5103140;28;20029;-70
2021/08/18 01:28:08;;;;;;;9.68;4.38;;;13.90;99.90;;;;;;5087183;28;20036;-74
2021/08/18 01:30:34;;;;;;;8.85;4.47;;;13.80;99.90;;;;;;5083780;28;20040;-72
2021/08/18 01:33:02;;;;;;;16.85;5.22;;;13.90;99.90;;;;;;5078622;28;20383;-75
2021/08/18 01:35:31;;;;;;;12.80;4.28;;;13.80;99.90;;;;;;5097261;28;20040;-72
2021/08/18 01:37:57;;;;;;;10.23;4.28;;;13.80;99.90;;;;;;5065219;28;20131;-73
2021/08/18 01:40:24;;;;;;;15.77;5.40;;;13.80;99.90;;;;;;5070041;28;20115;-71
2021/08/18 01:42:51;;;;;;;10.20;4.75;;;13.80;99.90;;;;;;5086556;28;20032;-74
2021/08/18 01:45:30;;;;;;;9.65;4.32;;;13.80;99.90;;;;;;5086959;28;20066;-74
2021/08/18 01:47:56;;;;;;;8.63;4.45;;;13.80;99.90;;;;;;5086549;28;20051;-71
2021/08/18 01:50:24;;;;;;;10.45;4.40;;;13.80;99.90;;;;;;5086595;28;20032;-73
2021/08/18 01:52:56;;;;;;;10.38;4.22;;;13.80;99.90;;;;;;5101927;28;20032;-73
2021/08/18 01:55:23;;;;;;;11.32;5.20;;;13.80;99.90;;;;;;5086409;28;20024;-71
2021/08/18 01:57:49;;;;;;;10.88;3.90;;;13.80;99.90;;;;;;5086231;28;20036;-73
2021/08/18 02:00:16;;;;;;;9.35;3.60;;;13.80;99.90;;;;;;5067666;28;20032;-73
2021/08/18 02:02:42;;;;;;;9.48;4.57;;;13.80;99.90;;;;;;5066680;28;20057;-74
2021/08/18 02:05:09;;;;;;;17.75;4.55;;;13.80;99.90;;;;;;5066458;28;20029;-72
2021/08/18 02:07:35;;;;;;;9.05;5.10;;;13.80;99.90;;;;;;5066053;28;20021;-71
2021/08/18 02:10:00;;;;;;;11.82;5.32;;;13.80;99.90;;;;;;5070391;28;20017;-72
2021/08/18 02:12:26;;;;;;;11.15;4.82;;;13.80;99.90;;;;;;5086024;28;20029;-73
2021/08/18 02:14:52;;;;;;;8.95;4.75;;;13.90;99.90;;;;;;5085962;28;20104;-72
2021/08/18 02:17:17;;;;;;;9.93;5.18;;;13.80;99.90;;;;;;5086059;28;20036;-73
2021/08/18 02:19:43;;;;;;;8.70;4.20;;;13.90;99.90;;;;;;5086077;28;20056;-73
2021/08/18 02:22:08;;;;;;;9.25;4.63;;;13.90;99.90;;;;;;5086166;28;20028;-75
2021/08/18 02:24:34;;;;;;;11.65;5.07;;;13.90;99.90;;;;;;5086035;28;20025;-73
2021/08/18 02:27:03;;;;;;;9.90;4.60;;;14.00;99.90;;;;;;5085942;28;20702;-73
2021/08/18 02:29:29;;;;;;;7.40;3.70;;;13.90;99.90;;;;;;5085817;28;20028;-74
2021/08/18 02:31:54;;;;;;;18.38;5.32;;;13.90;99.90;;;;;;5101373;28;20071;-72
2021/08/18 02:34:20;;;;;;;12.25;5.28;;;13.90;99.90;;;;;;5085660;28;20084;-73
2021/08/18 02:36:45;;;;;;;12.18;4.97;;;13.90;99.90;;;;;;5085843;28;20040;-75
2021/08/18 02:39:11;;;;;;;10.50;5.35;;;13.90;99.90;;;;;;5085873;28;20117;-74
2021/08/18 02:41:37;;;;;;;6.75;4.10;;;13.80;99.90;;;;;;5085208;28;20020;-73
2021/08/18 02:44:03;;;;;;;10.27;4.28;;;13.80;99.90;;;;;;5101018;28;20032;-74
2021/08/18 02:46:28;;;;;;;9.15;5.05;;;13.80;99.90;;;;;;5077380;28;20389;-73
2021/08/18 02:48:54;;;;;;;11.48;4.63;;;13.80;99.90;;;;;;5064125;28;20029;-72
2021/08/18 02:51:19;;;;;;;8.43;4.72;;;13.80;99.90;;;;;;5065501;28;20085;-73
2021/08/18 02:53:45;;;;;;;12.52;4.90;;;13.80;99.90;;;;;;5065498;28;20021;-75
2021/08/18 02:56:10;;;;;;;12.18;4.53;;;13.80;99.90;;;;;;5065465;28;20033;-70
2021/08/18 02:58:36;;;;;;;8.00;4.15;;;13.80;99.90;;;;;;5063873;28;20049;-72
2021/08/18 03:01:02;;;;;;;14.10;5.20;;;13.80;99.90;;;;;;5065253;28;20021;-72
2021/08/18 03:03:27;;;;;;;12.00;4.97;;;13.80;99.90;;;;;;5065184;28;20021;-70
2021/08/18 03:05:53;;;;;;;9.23;4.75;;;13.70;99.90;;;;;;5065116;28;20040;-72
2021/08/18 03:08:19;;;;;;;6.13;3.45;;;13.80;99.90;;;;;;5065050;28;20382;-74
2021/08/18 03:10:44;;;;;;;9.65;5.13;;;13.80;99.90;;;;;;5063812;28;20025;-71
2021/08/18 03:13:10;;;;;;;10.68;4.93;;;13.80;99.90;;;;;;5065106;28;20025;-72
2021/08/18 03:15:36;;;;;;;10.80;5.20;;;13.80;99.90;;;;;;5063621;28;20048;-72
2021/08/18 03:18:01;;;;;;;12.55;5.35;;;13.80;99.90;;;;;;5064976;28;20052;-70
2021/08/18 03:20:28;;;;;;;15.55;5.75;;;13.70;99.90;;;;;;5063422;28;20044;-71
2021/08/18 03:22:53;;;;;;;10.13;5.07;;;13.80;99.90;;;;;;5064756;28;20067;-72
2021/08/18 03:25:20;;;;;;;11.82;5.10;;;13.80;99.90;;;;;;5064816;28;20025;-74
2021/08/18 03:27:47;;;;;;;11.48;4.80;;;13.80;99.90;;;;;;5064970;28;20116;-72
2021/08/18 03:30:14;;;;;;;9.48;4.82;;;13.80;99.90;;;;;;5064954;28;20359;-72
2021/08/18 03:32:40;;;;;;;9.45;4.95;;;13.80;99.90;;;;;;5064911;28;20089;-78
2021/08/18 03:35:06;;;;;;;9.77;5.22;;;13.80;99.90;;;;;;5063687;28;20056;-71
2021/08/18 03:37:31;;;;;;;12.38;4.82;;;13.80;99.90;;;;;;5064601;28;20064;-72
2021/08/18 03:39:57;;;;;;;16.88;5.05;;;13.80;99.90;;;;;;5064825;28;20367;-73
2021/08/18 03:42:23;;;;;;;8.73;4.60;;;13.90;99.90;;;;;;5064439;28;20029;-73
2021/08/18 03:44:48;;;;;;;8.77;4.78;;;13.80;99.90;;;;;;5064655;28;20076;-73
2021/08/18 03:47:14;;;;;;;9.20;4.30;;;13.80;99.90;;;;;;5063287;28;20056;-73
2021/08/18 03:49:40;;;;;;;11.27;4.85;;;13.80;99.90;;;;;;5064698;28;20051;-76
2021/08/18 03:52:08;;;;;;;9.68;5.07;;;13.80;99.90;;;;;;5063903;28;20284;-72
2021/08/18 03:54:34;;;;;;;10.57;4.72;;;13.90;99.90;;;;;;5064326;28;20043;-74
2021/08/18 03:57:00;;;;;;;11.60;4.60;;;13.80;99.90;;;;;;5064197;28;20041;-73
2021/08/18 03:59:26;;;;;;;11.20;4.65;;;13.90;99.90;;;;;;5070126;28;20115;-71
2021/08/18 04:01:52;;;;;;;8.10;4.15;;;13.80;99.90;;;;;;5084318;28;20025;-70
2021/08/18 04:04:24;;;;;;;11.23;5.13;;;13.80;99.90;;;;;;5084380;28;20112;-75
2021/08/18 04:06:49;;;;;;;6.57;3.85;;;13.90;99.90;;;;;;5082885;28;20073;-70
2021/08/18 04:09:15;;;;;;;11.23;4.07;;;13.90;99.90;;;;;;5083191;28;20123;-72
2021/08/18 04:11:40;;;;;;;12.98;4.22;;;14.00;99.90;;;;;;5084556;28;20027;-72
2021/08/18 04:14:10;;;;;;;10.93;3.65;;;13.90;99.90;;;;;;5082790;28;20051;-70
2021/08/18 04:16:38;;;;;;;11.38;3.95;;;14.00;99.90;;;;;;5084440;28;20037;-73
2021/08/18 04:19:04;;;;;;;9.35;4.10;;;13.90;99.90;;;;;;5084384;28;20103;-71
2021/08/18 04:21:29;;;;;;;9.35;3.55;;;13.80;99.90;;;;;;5084244;28;20021;-73
2021/08/18 04:23:55;;;;;;;8.50;3.88;;;13.80;99.90;;;;;;5082211;28;20032;-75
2021/08/18 04:26:21;;;;;;;8.30;3.85;;;13.90;99.90;;;;;;5082928;28;20040;-69
2021/08/18 04:28:46;;;;;;;7.32;3.30;;;13.90;99.90;;;;;;5062822;28;20061;-71
2021/08/18 04:31:12;;;;;;;12.90;3.92;;;13.90;99.90;;;;;;5064474;28;20045;-71
2021/08/18 04:33:38;;;;;;;8.20;3.92;;;13.90;99.90;;;;;;5068912;28;20029;-71
2021/08/18 04:36:04;;;;;;;9.23;4.15;;;13.90;99.90;;;;;;5084071;28;20028;-71
2021/08/18 04:38:30;;;;;;;6.85;4.18;;;13.90;99.90;;;;;;5099612;28;20037;-69
2021/08/18 04:40:56;;;;;;;6.35;3.60;;;13.90;99.90;;;;;;5084035;28;20024;-68
2021/08/18 04:43:21;;;;;;;5.35;2.83;;;14.00;99.90;;;;;;5099312;28;20073;-71
2021/08/18 04:45:47;;;;;;;6.93;3.20;;;13.90;99.90;;;;;;5084483;28;20385;-72
2021/08/18 04:48:13;;;;;;;6.80;3.05;;;14.00;99.90;;;;;;5084257;28;20069;-71
2021/08/18 04:50:40;;;;;;;7.53;4.07;;;14.00;99.90;;;;;;5079532;28;20040;-72
2021/08/18 04:53:10;;;;;;;11.43;3.55;;;14.00;99.90;;;;;;5090511;28;20036;-71
2021/08/18 04:55:37;;;;;;;8.07;4.05;;;14.00;99.90;;;;;;5079640;28;20037;-72
2021/08/18 04:58:03;;;;;;;13.63;3.75;;;14.00;99.90;;;;;;5063739;28;20029;-73
2021/08/18 05:00:28;;;;;;;5.47;2.92;;;14.10;99.90;;;;;;5063906;28;20116;-69
2021/08/18 05:02:54;;;;;;;9.60;3.22;;;14.10;99.90;;;;;;5062430;28;20111;-73
2021/08/18 05:05:19;;;;;;;5.95;3.05;;;14.10;99.90;;;;;;5067292;28;20500;-70
2021/08/18 05:07:56;;;;;;;9.02;3.65;;;14.10;99.90;;;;;;5067409;28;20021;-71
2021/08/18 05:10:22;;;;;;;19.27;4.28;;;14.20;99.90;;;;;;5067047;28;20417;-71
2021/08/18 05:12:48;;;;;;;5.25;3.03;;;14.20;99.90;;;;;;5066876;28;20057;-72
2021/08/18 05:15:14;;;;;;;9.02;3.72;;;14.20;99.90;;;;;;5067131;28;20064;-72
2021/08/18 05:17:39;;;;;;;5.38;2.72;;;14.20;99.90;;;;;;5067272;28;20036;-74
2021/08/18 05:20:07;;;;;;;10.73;3.47;;;14.20;99.90;;;;;;5066813;28;20102;-71
2021/08/18 05:22:32;;;;;;;6.63;3.53;;;14.20;99.90;;;;;;5066564;28;20025;-71
2021/08/18 05:24:58;;;;;;;9.07;3.72;;;14.20;99.90;;;;;;5065666;28;20021;-73
2021/08/18 05:27:23;;;;;;;8.88;2.88;;;14.20;99.90;;;;;;5065424;28;20060;-71
2021/08/18 05:29:49;;;;;;;10.25;3.92;;;14.20;99.90;;;;;;5065441;28;20420;-73
2021/08/18 05:32:14;;;;;;;7.30;3.03;;;14.10;99.90;;;;;;5067136;28;20057;-76
2021/08/18 05:34:40;;;;;;;6.53;2.78;;;14.10;99.90;;;;;;5067044;28;20036;-74
2021/08/18 05:37:06;;;;;;;10.27;3.15;;;14.10;99.90;;;;;;5066979;28;20044;-77
2021/08/18 05:39:31;;;;;;;3.70;2.40;;;14.10;99.90;;;;;;5065680;28;20021;-71
2021/08/18 05:41:57;;;;;;;5.28;2.58;;;14.10;99.90;;;;;;5066480;28;20025;-70
2021/08/18 05:44:22;;;;;;;6.63;2.55;;;14.10;99.90;;;;;;5066377;28;20100;-72
2021/08/18 05:46:52;;;;;;;8.60;2.90;;;14.10;99.90;;;;;;5066768;28;20043;-74
2021/08/18 05:49:21;;;;;;;6.18;2.55;;;14.10;99.90;;;;;;5066510;28;20085;-71
2021/08/18 05:51:48;;;;;;;14.73;3.05;;;14.10;99.90;;;;;;5066652;28;20025;-74
2021/08/18 05:54:14;;;;;;;4.63;2.67;;;14.10;99.90;;;;;;5066676;28;20021;-70
2021/08/18 05:56:43;;;;;;;4.20;2.72;;;14.10;99.90;;;;;;5066777;28;20064;-76
2021/08/18 05:59:13;;;;;;;4.50;2.53;;;14.10;99.90;;;;;;5066555;28;20033;-73
2021/08/18 06:01:40;;;;;;;6.20;2.90;;;14.10;99.90;;;;;;5066712;28;20047;-73
2021/08/18 06:04:05;;;;;;;11.68;3.33;;;14.00;99.90;;;;;;5065986;28;20029;-73
2021/08/18 06:06:31;;;;;;;5.40;2.35;;;14.10;99.90;;;;;;5064991;28;20078;-70
2021/08/18 06:08:58;;;;;;;4.80;2.60;;;14.00;99.90;;;;;;5075979;28;20025;-67
2021/08/18 06:11:24;;;;;;;8.63;2.60;;;14.00;99.90;;;;;;5076286;28;20385;-71
2021/08/18 06:13:49;;;;;;;4.25;2.40;;;14.00;99.90;;;;;;5068705;28;20036;-68
2021/08/18 06:16:16;;;;;;;5.60;3.00;;;14.00;99.90;;;;;;5065671;28;20024;-68
2021/08/18 06:18:42;;;;;;;11.30;2.20;;;14.00;99.90;;;;;;5066240;28;20037;-68
2021/08/18 06:21:08;;;;;;;3.60;1.95;;;14.10;99.90;;;;;;5064876;28;20040;-66
2021/08/18 06:23:34;;;;;;;5.13;2.90;;;14.00;99.90;;;;;;5066147;28;20044;-68
2021/08/18 06:26:00;;;;;;;6.00;2.75;;;14.10;99.90;;;;;;5066197;28;20029;-67
2021/08/18 06:28:26;;;;;;;4.47;2.45;;;14.10;99.90;;;;;;5066092;28;20032;-68
2021/08/18 06:30:53;;;;;;;8.40;3.15;;;14.10;99.90;;;;;;5065091;28;20029;-67
2021/08/18 06:33:19;;;;;;;4.97;2.22;;;14.20;99.90;;;;;;5063341;28;20090;-70
2021/08/18 06:35:45;;;;;;;4.65;2.50;;;14.30;99.90;;;;;;5063887;28;20033;-68
2021/08/18 06:38:11;;;;;;;5.97;2.35;;;14.30;99.90;;;;;;5065348;28;20044;-69
2021/08/18 06:40:37;;;;;;;6.55;2.97;;;14.40;99.90;;;;;;5065149;28;20029;-68
2021/08/18 06:43:03;;;;;;;4.65;2.60;;;14.40;99.90;;;;;;5063686;28;20047;-67
2021/08/18 06:45:31;;;;;;;9.73;2.60;;;14.50;99.90;;;;;;5063703;28;20040;-67
2021/08/18 06:47:57;;;;;;;5.05;2.38;;;14.50;99.90;;;;;;5064608;28;20025;-65
2021/08/18 06:50:23;;;;;;;4.03;2.20;;;14.50;99.90;;;;;;5065183;28;20051;-69
2021/08/18 06:52:49;;;;;;;4.28;2.25;;;14.60;99.90;;;;;;5064998;28;20059;-69
2021/08/18 06:55:15;;;;;;;8.10;3.22;;;14.60;99.90;;;;;;5065266;28;20037;-70
2021/08/18 06:57:41;;;;;;;11.25;2.42;;;14.70;99.90;;;;;;5063043;28;20073;-71
2021/08/18 07:00:09;;;;;;;4.00;2.28;;;14.60;99.90;;;;;;5075071;28;20052;-70
2021/08/18 07:02:51;;;;;;;4.30;1.83;;;14.70;99.90;;;;;;5084875;28;20417;-70
2021/08/18 07:05:16;;;;;;;4.18;2.30;;;14.70;99.90;;;;;;5084873;28;20028;-75
2021/08/18 07:07:45;;;;;;;4.78;2.28;;;14.80;99.90;;;;;;5083869;28;20025;-72
2021/08/18 07:10:13;;;;;;;6.28;2.53;;;14.80;99.90;;;;;;5084310;28;20029;-71
2021/08/18 07:12:39;;;;;;;4.63;1.92;;;14.90;99.90;;;;;;5082833;28;20025;-75
2021/08/18 07:15:06;;;;;;;9.35;2.25;;;14.90;99.90;;;;;;5083781;28;20509;-73
2021/08/18 07:17:32;;;;;;;4.80;2.00;;;15.00;99.90;;;;;;5084787;28;20067;-68
2021/08/18 07:19:58;;;;;;;5.22;2.10;;;15.00;99.90;;;;;;5084675;28;20017;-70
2021/08/18 07:22:24;;;;;;;9.18;2.65;;;15.00;99.90;;;;;;5083506;28;20033;-71
2021/08/18 07:24:49;;;;;;;5.45;2.28;;;15.10;99.90;;;;;;5084429;28;20042;-72
2021/08/18 07:27:15;;;;;;;5.60;1.73;;;15.00;99.90;;;;;;5083068;28;20028;-71
2021/08/18 07:29:41;;;;;;;2.60;1.33;;;15.10;99.90;;;;;;5084616;28;20024;-74
2021/08/18 07:32:07;;;;;;;5.78;2.40;;;15.10;99.90;;;;;;5083630;28;20473;-75
2021/08/18 07:34:33;;;;;;;6.22;1.83;;;15.10;99.90;;;;;;5083177;28;20025;-71
2021/08/18 07:37:00;;;;;;;3.85;2.35;;;15.00;99.90;;;;;;5083484;28;20028;-70
2021/08/18 07:39:25;;;;;;;5.20;2.22;;;15.10;99.90;;;;;;5084568;28;20021;-69
2021/08/18 07:41:51;;;;;;;7.47;2.05;;;15.00;99.90;;;;;;5083188;28;20021;-67
2021/08/18 07:44:17;;;;;;;5.10;2.15;;;15.10;99.90;;;;;;5084796;28;20025;-69
2021/08/18 07:46:44;;;;;;;3.67;1.58;;;15.10;99.90;;;;;;5083385;28;20028;-70
2021/08/18 07:49:10;;;;;;;5.82;1.92;;;15.00;99.90;;;;;;5084427;28;20389;-70
2021/08/18 07:51:37;;;;;;;8.77;1.98;;;15.10;99.90;;;;;;5082699;28;20035;-69
2021/08/18 07:54:03;;;;;;;4.63;2.08;;;15.10;99.90;;;;;;5076046;28;20064;-70
2021/08/18 07:56:31;;;;;;;5.72;1.80;;;15.20;99.90;;;;;;5077391;28;20061;-69
2021/08/18 07:58:57;;;;;;;9.60;2.58;;;15.20;99.90;;;;;;5099947;28;20020;-69
2021/08/18 08:01:23;;;;;;;8.73;1.67;;;15.20;99.90;;;;;;5100011;28;20093;-68
2021/08/18 08:03:49;;;;;;;9.50;2.35;;;15.30;99.90;;;;;;5075052;28;20493;-72
2021/08/18 08:06:14;;;;;;;11.70;2.97;;;15.30;99.90;;;;;;5064432;28;20025;-69
2021/08/18 08:08:40;;;;;;;3.88;2.05;;;15.40;99.90;;;;;;5062616;28;20390;-71
2021/08/18 08:11:05;;;;;;;7.35;2.25;;;15.50;99.90;;;;;;5064303;28;20056;-69
2021/08/18 08:13:34;;;;;;;4.55;2.13;;;15.50;99.90;;;;;;5063720;28;20070;-69
2021/08/18 08:15:59;;;;;;;2.28;1.60;;;15.60;99.90;;;;;;5062821;28;20072;-73
2021/08/18 08:18:26;;;;;;;7.82;2.35;;;15.70;99.90;;;;;;5060912;28;20410;-72
2021/08/18 08:20:51;;;;;;;10.63;1.92;;;15.70;99.90;;;;;;5063219;28;20039;-69
2021/08/18 08:23:17;;;;;;;3.78;2.22;;;15.60;99.90;;;;;;5060101;28;20025;-72
2021/08/18 08:25:44;;;;;;;4.28;1.55;;;15.70;99.90;;;;;;5062824;28;20029;-74
2021/08/18 08:28:10;;;;;;;3.47;1.60;;;15.80;99.90;;;;;;5062837;28;20025;-69
2021/08/18 08:30:35;;;;;;;3.67;1.75;;;15.80;99.90;;;;;;5063888;28;20112;-70
2021/08/18 08:33:02;;;;;;;4.38;2.08;;;15.80;99.90;;;;;;5070878;28;20040;-76
2021/08/18 08:35:28;;;;;;;4.20;1.67;;;15.80;99.90;;;;;;5080397;28;20087;-71
2021/08/18 08:37:54;;;;;;;3.70;1.73;;;15.80;99.90;;;;;;5081752;28;20043;-73
2021/08/18 08:40:20;;;;;;;3.58;2.13;;;15.70;99.90;;;;;;5087099;28;20064;-72
2021/08/18 08:42:46;;;;;;;4.30;1.73;;;15.70;99.90;;;;;;5087027;28;20055;-73
2021/08/18 08:45:12;;;;;;;4.30;1.98;;;15.80;99.90;;;;;;5086040;28;20035;-72
2021/08/18 08:47:39;;;;;;;3.60;1.50;;;15.70;99.90;;;;;;5085737;28;20032;-71
2021/08/18 08:50:08;;;;;;;4.88;1.77;;;15.70;99.90;;;;;;5085731;28;20033;-72
2021/08/18 08:52:33;;;;;;;1.67;1.10;;;15.70;99.90;;;;;;5085352;28;20575;-70
2021/08/18 08:55:00;;;;;;;4.75;1.73;;;15.70;99.90;;;;;;5086792;28;20024;-74
2021/08/18 08:57:26;;;;;;;3.78;1.85;;;15.70;99.90;;;;;;5086521;28;20036;-71
2021/08/18 08:59:51;;;;;;;11.65;2.70;;;15.70;99.90;;;;;;5085423;28;20027;-68
2021/08/18 09:02:20;;;;;;;5.80;1.77;;;15.70;99.90;;;;;;5085424;28;20107;-72
2021/08/18 09:04:48;;;;;;;5.47;1.75;;;15.80;99.90;;;;;;5086743;28;20088;-69
2021/08/18 09:07:20;;;;;;;3.08;1.58;;;16.00;99.90;;;;;;5084667;28;20086;-70
2021/08/18 09:09:54;;;;;;;5.68;2.13;;;16.10;99.90;;;;;;5087335;28;20024;-71
2021/08/18 09:12:28;;;;;;;;;;;16.30;99.90;;;;;;5087223;28;20029;-72
2021/08/18 09:14:54;;;;;;;4.15;1.58;;;16.40;99.90;;;;;;5085399;28;19920;-69
2021/08/18 09:17:30;;;;;;;3.75;1.67;;;16.60;99.90;;;;;;5085841;28;20048;-73
2021/08/18 09:19:58;;;;;;;2.10;1.50;;;16.80;99.90;;;;;;5086946;28;20028;-72
2021/08/18 09:22:23;;;;;;;3.65;1.98;;;16.80;99.90;;;;;;5085731;28;20500;-72
2021/08/18 09:24:49;;;;;;;3.75;1.73;;;17.00;99.90;;;;;;5086608;28;20024;-72
2021/08/18 09:27:23;;;;;;;2.40;1.30;;;17.10;99.90;;;;;;5084772;28;20029;-71
2021/08/18 09:29:50;;;;;;;3.03;1.60;;;17.20;99.90;;;;;;5086110;28;20032;-76
2021/08/18 09:32:24;;;;;;;3.40;1.52;;;17.30;99.90;;;;;;5084418;28;20161;-70
2021/08/18 09:35:02;;;;;;;3.33;1.45;;;17.30;99.90;;;;;;5085332;28;20032;-71
2021/08/18 09:37:28;;;;;;;3.78;1.77;;;17.40;99.90;;;;;;5085349;28;20071;-72
2021/08/18 09:39:56;;;;;;;2.78;1.55;;;17.50;99.90;;;;;;5084296;28;20112;-73
2021/08/18 09:42:32;;;;;;;1.90;1.30;;;17.50;99.90;;;;;;5084298;28;20029;-74
2021/08/18 09:45:24;;;;;;;3.30;1.77;;;17.50;99.90;;;;;;5082973;28;20029;-72
2021/08/18 09:47:59;;;;;;;4.22;1.52;;;17.40;99.90;;;;;;5085739;28;20044;-72
2021/08/18 09:50:28;;;;;;;3.80;1.52;;;17.40;99.90;;;;;;5083121;28;20020;-74
2021/08/18 09:53:03;;;;;;;3.20;1.42;;;17.30;99.90;;;;;;5084059;28;20025;-76
2021/08/18 09:55:29;;;;;;;11.43;1.50;;;17.20;99.90;;;;;;5085590;28;20024;-74
2021/08/18 09:57:54;;;;;;;2.85;1.80;;;17.10;99.90;;;;;;5085141;28;20047;-73
2021/08/18 10:00:20;;;;;;;2.55;1.58;;;17.10;99.90;;;;;;5085249;28;20418;-75
2021/08/18 10:02:46;;;;;;;4.72;1.77;;;17.10;99.90;;;;;;5085010;28;20059;-74
2021/08/18 10:05:12;;;;;;;4.57;1.75;;;17.00;99.90;;;;;;5085277;28;20035;-75
2021/08/18 10:07:38;;;;;;;2.83;1.45;;;17.00;99.90;;;;;;5084027;28;20024;-72
2021/08/18 10:10:04;;;;;;;2.00;1.33;;;17.00;99.90;;;;;;5084960;28;20048;-73
2021/08/18 10:12:31;;;;;;;3.35;1.50;;;17.10;99.90;;;;;;5083684;28;20086;-73
2021/08/18 10:15:00;;;;;;;2.97;1.75;;;17.10;99.90;;;;;;5085071;28;20048;-73
2021/08/18 10:17:26;;;;;;;5.30;1.50;;;17.10;99.90;;;;;;5085037;28;20033;-71
2021/08/18 10:19:53;;;;;;;10.13;2.22;;;17.20;99.90;;;;;;5085056;28;20707;-73
2021/08/18 10:22:28;;;;;;;2.95;2.17;;;17.20;99.90;;;;;;5084980;28;20029;-75
2021/08/18 10:24:55;;;;;;;4.20;2.03;;;17.30;99.90;;;;;;5084695;28;20071;-73
2021/08/18 10:27:46;;;;;;;2.25;1.40;;;17.30;99.90;;;;;;5084623;28;20038;-70
2021/08/18 10:30:26;;;;;;;4.38;1.48;;;17.40;99.90;;;;;;5084782;28;20032;-75
2021/08/18 10:32:52;;;;;;;2.60;1.40;;;17.50;99.90;;;;;;5083056;28;20044;-74
2021/08/18 10:35:48;;;;;;;3.60;1.50;;;17.40;99.90;;;;;;5084664;28;20159;-77
2021/08/18 10:38:28;;;;;;;4.28;1.65;;;17.40;99.90;;;;;;5074411;28;20116;-73
2021/08/18 10:40:55;;;;;;;3.00;2.05;;;17.50;99.90;;;;;;5084478;28;20028;-73
2021/08/18 10:43:56;;;;;;;3.75;1.55;;;17.50;99.90;;;;;;5082917;28;20033;-72
2021/08/18 10:46:23;;;;;;;2.88;1.70;;;17.60;99.90;;;;;;5084547;28;20078;-73
2021/08/18 10:49:06;;;;;;;3.67;2.00;;;17.60;99.90;;;;;;5084205;28;20107;-75
2021/08/18 10:51:44;;;;;;;2.90;1.77;;;17.70;99.90;;;;;;5084703;28;20135;-71
2021/08/18 10:54:40;;;;;;;2.58;1.70;;;17.80;99.90;;;;;;5084699;28;20029;-71
2021/08/18 10:57:36;;;;;;;7.25;1.67;;;17.90;99.90;;;;;;5083492;28;20041;-75
2021/08/18 11:00:08;;;;;;;3.63;1.58;;;18.00;99.90;;;;;;5084233;28;20535;-73
2021/08/18 11:02:48;;;;;;;1.40;1.10;;;18.20;99.90;;;;;;5083648;28;20024;-73
2021/08/18 11:05:19;;;;;;;1.75;1.10;;;18.40;99.90;;;;;;5083432;28;20036;-74
2021/08/18 11:08:00;;;;;;;2.10;0.95;;;18.40;99.90;;;;;;5085558;28;20024;-74
2021/08/18 11:10:27;;;;;;;5.13;1.15;;;18.40;99.90;;;;;;5084922;28;20384;-72
2021/08/18 11:12:56;;;;;;;2.38;0.95;;;18.50;99.90;;;;;;5084768;28;20028;-73
2021/08/18 11:15:28;;;;;;;1.98;1.00;;;18.50;99.90;;;;;;5079240;28;20056;-73
2021/08/18 11:17:56;;;;;;;1.92;1.00;;;18.50;99.90;;;;;;5071214;28;20040;-75
2021/08/18 11:20:22;;;;;;;2.35;1.13;;;18.60;99.90;;;;;;5084457;28;20084;-70
2021/08/18 11:22:55;;;;;;;2.75;1.00;;;18.60;99.90;;;;;;5084970;28;20084;-74
2021/08/18 11:25:22;;;;;;;2.05;1.25;;;18.80;99.90;;;;;;5084669;28;20508;-74
2021/08/18 11:27:56;;;;;;;2.65;1.13;;;19.00;99.90;;;;;;5081431;28;20044;-69
2021/08/18 11:30:30;;;;;;;1.08;0.70;;;19.20;99.90;;;;;;5064896;28;20032;-73
2021/08/18 11:33:17;;;;;;;1.77;0.95;;;19.30;99.90;;;;;;5063292;28;20043;-74
2021/08/18 11:35:44;;;;;;;2.63;1.00;;;19.30;99.90;;;;;;5064740;28;20028;-74
2021/08/18 11:38:10;;;;;;;3.38;1.20;;;19.40;99.90;;;;;;5063264;28;20033;-71
2021/08/18 11:40:37;;;;;;;2.05;1.00;;;19.50;99.90;;;;;;5064741;28;20036;-74
2021/08/18 11:43:04;;;;;;;3.42;1.20;;;19.60;99.90;;;;;;5063035;28;20025;-72
2021/08/18 11:45:34;;;;;;;1.83;1.10;;;19.70;99.90;;;;;;5077130;28;20033;-71
2021/08/18 11:48:12;;;;;;;2.03;1.05;;;19.70;99.90;;;;;;5084312;28;20032;-71
2021/08/18 11:50:50;;;;;;;1.65;1.00;;;19.70;99.90;;;;;;5100120;28;20032;-69
2021/08/18 11:53:20;;;;;;;3.92;1.13;;;19.70;99.90;;;;;;5084564;28;20025;-77
2021/08/18 11:56:00;;;;;;;3.95;1.38;;;19.70;99.90;;;;;;5084634;28;20393;-73
2021/08/18 11:58:33;;;;;;;3.42;1.08;;;19.70;99.90;;;;;;5084138;28;20037;-76
2021/08/18 12:01:04;;;;;;;1.58;0.88;;;19.90;99.90;;;;;;5084520;28;20462;-75
2021/08/18 12:03:31;;;;;;;2.63;1.30;;;19.80;99.90;;;;;;5082375;28;20088;-73
2021/08/18 12:06:03;;;;;;;2.85;1.30;;;19.90;99.90;;;;;;5065258;28;20070;-75
2021/08/18 12:08:37;;;;;;;3.63;1.23;;;20.10;99.90;;;;;;5075120;28;20055;-71
2021/08/18 12:11:03;;;;;;;3.13;1.08;;;20.10;99.90;;;;;;5084485;28;20032;-72
2021/08/18 12:13:47;;;;;;;3.03;1.67;;;20.00;99.90;;;;;;5085316;28;20027;-74
2021/08/18 12:16:27;;;;;;;5.80;1.88;;;19.80;99.90;;;;;;5088810;28;20111;-77
2021/08/18 12:18:54;;;;;;;3.35;1.27;;;19.50;99.90;;;;;;5103838;28;20037;-72
2021/08/18 12:21:25;;;;;;;2.88;1.42;;;19.30;99.90;;;;;;5088397;28;20477;-72
2021/08/18 12:23:55;;;;;;;8.90;2.17;;;19.10;99.90;;;;;;5085550;28;20024;-71
2021/08/18 12:26:34;;;;;;;3.38;1.63;;;18.80;99.90;;;;;;5086187;28;20050;-76
2021/08/18 12:29:02;;;;;;;3.88;1.95;;;18.50;99.90;;;;;;5081341;28;20026;-75
2021/08/18 12:31:55;;;;;;;3.47;1.48;;;18.30;99.90;;;;;;5087847;28;20024;-77
2021/08/18 12:34:43;;;;;;;5.60;2.20;;;18.10;99.90;;;;;;5085834;28;20497;-74
2021/08/18 12:37:14;;;;;;;1.98;1.42;;;17.90;99.90;;;;;;5066497;28;20397;-74
2021/08/18 12:39:52;;;;;;;4.57;1.98;;;17.90;99.90;;;;;;5074375;28;20055;-73
2021/08/18 12:42:40;;;;;;;2.13;1.58;;;17.90;99.90;;;;;;5088259;28;20075;-77
2021/08/18 12:45:16;;;;;;;3.97;2.17;;;18.00;99.90;;;;;;5075058;28;20037;-73
2021/08/18 12:47:43;;;;;;;2.30;1.67;;;18.20;99.90;;;;;;5067865;28;20025;-72
2021/08/18 12:50:25;;;;;;;4.38;1.80;;;18.50;99.90;;;;;;5067905;28;20097;-71
2021/08/18 12:52:50;;;;;;;11.05;1.92;;;18.70;99.90;;;;;;5080939;28;20024;-72